Time;durP1;ratioP1;P1;durP2;ratioP2;P2;SDS_P1;SDS_P2;PMS_P1;PMS_P2;Temp;Humidity;BMP_temperature;BMP_pressure;BME280_temperature;BME280_humidity;BME280_pressure;Samples;Min_cycle;Max_cycle;Signal;HPM_P1;HPM_P2
2022/03/01 00:01:47;;;;;;;19.80;11.03;;;-2.00;99.90;;;;;;5118519;28;20195;-76
2022/03/01 00:04:15;;;;;;;22.00;11.30;;;-1.90;99.90;;;;;;5118719;28;20199;-76
2022/03/01 00:06:42;;;;;;;22.27;12.43;;;-2.00;99.90;;;;;;5118097;28;20370;-76
2022/03/01 00:09:08;;;;;;;19.70;11.50;;;-1.90;99.90;;;;;;5122370;28;20220;-77
2022/03/01 00:11:35;;;;;;;20.77;11.93;;;-2.10;99.90;;;;;;5124435;28;20191;-76
2022/03/01 00:14:03;;;;;;;19.47;11.60;;;-2.10;99.90;;;;;;5125575;28;20203;-76
2022/03/01 00:16:30;;;;;;;19.67;11.73;;;-2.10;99.90;;;;;;5125079;28;20196;-76
2022/03/01 00:18:57;;;;;;;19.63;11.50;;;-2.20;99.90;;;;;;5125303;28;20239;-77
2022/03/01 00:21:25;;;;;;;19.07;12.30;;;-2.30;99.90;;;;;;5125118;28;20206;-77
2022/03/01 00:23:52;;;;;;;22.17;11.93;;;-2.50;99.90;;;;;;5122441;28;20229;-76
2022/03/01 00:26:19;;;;;;;24.27;11.77;;;-2.50;99.90;;;;;;5120818;28;20252;-76
2022/03/01 00:28:46;;;;;;;24.33;12.37;;;-2.50;99.90;;;;;;5120561;28;20276;-76
2022/03/01 00:31:12;;;;;;;20.87;12.30;;;-2.60;99.90;;;;;;5120099;28;20195;-77
2022/03/01 00:33:39;;;;;;;20.67;11.90;;;-2.60;99.90;;;;;;5118188;28;20199;-77
2022/03/01 00:36:06;;;;;;;24.63;13.13;;;-2.60;99.90;;;;;;5117636;28;20666;-74
2022/03/01 00:38:34;;;;;;;22.10;12.27;;;-2.60;99.90;;;;;;5117647;28;20226;-76
2022/03/01 00:41:01;;;;;;;21.83;12.70;;;-2.60;99.90;;;;;;5117605;28;20199;-77
2022/03/01 00:43:28;;;;;;;24.23;13.43;;;-2.50;99.90;;;;;;5117113;28;20207;-75
2022/03/01 00:45:55;;;;;;;23.97;13.10;;;-2.50;99.90;;;;;;5116872;28;20203;-75
2022/03/01 00:48:22;;;;;;;21.60;12.93;;;-2.60;99.90;;;;;;5116799;28;20195;-76
2022/03/01 00:50:50;;;;;;;24.10;13.07;;;-2.60;99.90;;;;;;5116620;28;20256;-75
2022/03/01 00:53:17;;;;;;;23.73;12.47;;;-2.60;99.90;;;;;;5116427;28;20195;-76
2022/03/01 00:55:45;;;;;;;21.90;12.53;;;-2.70;99.90;;;;;;5116708;28;20221;-76
2022/03/01 00:58:12;;;;;;;22.70;12.60;;;-2.70;99.90;;;;;;5116288;28;20222;-75
2022/03/01 01:00:39;;;;;;;19.30;11.70;;;-2.80;99.90;;;;;;5116380;28;20266;-77
2022/03/01 01:03:06;;;;;;;22.33;12.33;;;-2.80;99.90;;;;;;5097913;28;20653;-76
2022/03/01 01:05:32;;;;;;;21.43;12.10;;;-2.80;99.90;;;;;;5116681;28;20207;-75
2022/03/01 01:07:59;;;;;;;22.53;11.73;;;-2.80;99.90;;;;;;5116067;28;20233;-74
2022/03/01 01:10:26;;;;;;;21.13;11.87;;;-2.80;99.90;;;;;;5115872;28;20204;-75
2022/03/01 01:12:54;;;;;;;20.93;11.67;;;-2.90;99.90;;;;;;5116089;28;20200;-75
2022/03/01 01:15:21;;;;;;;20.77;11.83;;;-2.80;99.90;;;;;;5115849;28;20704;-76
2022/03/01 01:17:48;;;;;;;19.83;11.57;;;-2.90;99.90;;;;;;5116033;28;20247;-75
2022/03/01 01:20:16;;;;;;;17.30;10.90;;;-3.00;99.90;;;;;;5115927;28;20368;-76
2022/03/01 01:22:43;;;;;;;18.97;11.67;;;-3.20;99.90;;;;;;5115778;28;20716;-75
2022/03/01 01:25:12;;;;;;;20.57;12.27;;;-3.20;99.90;;;;;;5115993;28;20191;-75
2022/03/01 01:27:41;;;;;;;21.83;12.40;;;-3.20;99.90;;;;;;5114839;28;20195;-76
2022/03/01 01:30:11;;;;;;;23.00;12.17;;;-3.30;99.90;;;;;;5115692;28;20192;-76
2022/03/01 01:32:38;;;;;;;21.03;12.17;;;-3.20;99.90;;;;;;5116413;28;20205;-75
2022/03/01 01:35:07;;;;;;;19.07;11.03;;;-3.20;99.90;;;;;;5116059;28;20195;-77
2022/03/01 01:37:33;;;;;;;16.80;11.17;;;-3.30;99.90;;;;;;5116155;28;20259;-75
2022/03/01 01:40:00;;;;;;;20.77;11.87;;;-3.30;99.90;;;;;;5115625;28;20296;-77
2022/03/01 01:42:27;;;;;;;20.10;12.40;;;-3.50;99.90;;;;;;5115390;28;20228;-75
2022/03/01 01:44:54;;;;;;;22.47;12.90;;;-3.30;99.90;;;;;;5115106;28;20275;-75
2022/03/01 01:47:22;;;;;;;17.97;11.47;;;-3.40;99.90;;;;;;5115551;28;20194;-75
2022/03/01 01:49:49;;;;;;;18.23;10.93;;;-3.30;99.90;;;;;;5118359;28;20206;-76
2022/03/01 01:52:15;;;;;;;20.30;11.80;;;-3.30;99.90;;;;;;5121018;28;20196;-76
2022/03/01 01:54:42;;;;;;;22.13;12.37;;;-3.30;99.90;;;;;;5121544;28;20201;-76
2022/03/01 01:57:16;;;;;;;19.77;12.00;;;-3.40;99.90;;;;;;5120843;28;20249;-76
2022/03/01 01:59:43;;;;;;;18.13;11.50;;;-3.50;99.90;;;;;;5119618;28;20565;-76
2022/03/01 02:02:12;;;;;;;22.40;12.53;;;-3.40;99.90;;;;;;5115585;28;20214;-76
2022/03/01 02:04:40;;;;;;;19.93;11.90;;;-3.50;99.90;;;;;;5116143;28;20198;-76
2022/03/01 02:07:09;;;;;;;23.03;12.37;;;-3.50;99.90;;;;;;5115624;28;20202;-76
2022/03/01 02:09:36;;;;;;;19.53;11.57;;;-3.60;99.90;;;;;;5115553;28;20195;-76
2022/03/01 02:12:05;;;;;;;21.97;12.40;;;-3.60;99.90;;;;;;5115448;28;20603;-76
2022/03/01 02:14:33;;;;;;;21.10;12.23;;;-3.60;99.90;;;;;;5115670;28;20681;-76
2022/03/01 02:17:00;;;;;;;23.87;12.63;;;-3.70;99.90;;;;;;5115090;28;20603;-76
2022/03/01 02:19:27;;;;;;;18.10;11.30;;;-3.70;99.90;;;;;;5115101;28;20229;-76
2022/03/01 02:21:56;;;;;;;20.03;11.90;;;-3.70;99.90;;;;;;5115106;28;20219;-76
2022/03/01 02:24:24;;;;;;;19.97;12.50;;;-3.80;99.90;;;;;;5115265;28;20229;-76
2022/03/01 02:26:55;;;;;;;23.87;12.97;;;-3.70;99.90;;;;;;5115211;28;20206;-76
2022/03/01 02:29:21;;;;;;;22.00;12.73;;;-3.80;99.90;;;;;;5115431;28;20732;-76
2022/03/01 02:31:48;;;;;;;20.97;12.03;;;-3.90;99.90;;;;;;5115637;28;20540;-76
2022/03/01 02:34:15;;;;;;;20.27;12.03;;;-3.90;99.90;;;;;;5115079;28;20202;-76
2022/03/01 02:36:42;;;;;;;19.37;12.50;;;-3.80;99.90;;;;;;5115328;28;20209;-76
2022/03/01 02:39:10;;;;;;;21.37;12.20;;;-3.80;99.90;;;;;;5114910;28;20720;-76
2022/03/01 02:41:38;;;;;;;22.83;12.13;;;-3.80;99.90;;;;;;5115994;28;20195;-77
2022/03/01 02:44:05;;;;;;;19.07;11.60;;;-3.70;99.90;;;;;;5118206;28;20205;-77
2022/03/01 02:46:32;;;;;;;19.60;11.77;;;-3.60;99.90;;;;;;5117762;28;20192;-76
2022/03/01 02:48:59;;;;;;;19.03;11.47;;;-3.70;99.90;;;;;;5115871;28;20205;-76
2022/03/01 02:51:26;;;;;;;20.80;12.70;;;-3.60;99.90;;;;;;5115937;28;20288;-76
2022/03/01 02:53:53;;;;;;;19.73;12.20;;;-3.70;99.90;;;;;;5116081;28;20193;-76
2022/03/01 02:56:21;;;;;;;21.87;12.20;;;-3.80;99.90;;;;;;5117457;28;20197;-77
2022/03/01 02:58:48;;;;;;;18.97;11.33;;;-3.80;99.90;;;;;;5116271;28;20217;-76
2022/03/01 03:01:15;;;;;;;18.10;11.60;;;-3.80;99.90;;;;;;5115693;28;20208;-76
2022/03/01 03:03:43;;;;;;;19.67;12.03;;;-3.80;99.90;;;;;;5116008;28;20211;-76
2022/03/01 03:06:10;;;;;;;20.93;11.97;;;-3.80;99.90;;;;;;5116030;28;20250;-76
2022/03/01 03:08:36;;;;;;;21.53;12.07;;;-3.90;99.90;;;;;;5115965;28;20205;-77
2022/03/01 03:11:03;;;;;;;20.40;11.47;;;-3.90;99.90;;;;;;5115395;28;20332;-76
2022/03/01 03:13:31;;;;;;;21.60;11.70;;;-4.00;99.90;;;;;;5115837;28;20222;-76
2022/03/01 03:15:58;;;;;;;20.53;11.33;;;-3.90;99.90;;;;;;5115205;28;20202;-77
2022/03/01 03:18:25;;;;;;;20.40;12.13;;;-4.00;99.90;;;;;;5114704;28;20596;-76
2022/03/01 03:20:51;;;;;;;21.23;12.33;;;-4.00;99.90;;;;;;5115499;28;20535;-76
2022/03/01 03:23:18;;;;;;;21.57;12.50;;;-4.10;99.90;;;;;;5115548;28;20202;-76
2022/03/01 03:25:45;;;;;;;19.13;11.90;;;-4.20;99.90;;;;;;5114813;28;20198;-76
2022/03/01 03:28:11;;;;;;;19.40;11.57;;;-4.30;99.90;;;;;;5114900;28;20201;-76
2022/03/01 03:30:39;;;;;;;22.90;12.83;;;-4.30;99.90;;;;;;5115121;28;20200;-76
2022/03/01 03:33:06;;;;;;;20.80;12.40;;;-4.30;99.90;;;;;;5115008;28;20240;-76
2022/03/01 03:35:33;;;;;;;21.63;12.17;;;-4.40;99.90;;;;;;5115524;28;20254;-76
2022/03/01 03:38:00;;;;;;;24.90;13.10;;;-4.40;99.90;;;;;;5115156;28;20236;-76
2022/03/01 03:40:27;;;;;;;19.93;12.17;;;-4.40;99.90;;;;;;5115297;28;20228;-76
2022/03/01 03:42:54;;;;;;;20.40;11.63;;;-4.30;99.90;;;;;;5115374;28;20192;-76
2022/03/01 03:45:20;;;;;;;23.40;12.93;;;-4.40;99.90;;;;;;5115697;28;20199;-76
2022/03/01 03:47:48;;;;;;;20.67;11.23;;;-4.40;99.90;;;;;;5116271;28;20200;-76
2022/03/01 03:50:15;;;;;;;21.03;12.00;;;-4.40;99.90;;;;;;5116754;28;20200;-76
2022/03/01 03:52:42;;;;;;;18.53;11.70;;;-4.50;99.90;;;;;;5115552;28;20201;-77
2022/03/01 03:55:10;;;;;;;19.50;12.10;;;-4.40;99.90;;;;;;5115031;28;20258;-76
2022/03/01 03:57:40;;;;;;;21.33;12.07;;;-4.50;99.90;;;;;;5118367;28;20661;-76
2022/03/01 04:00:09;;;;;;;19.63;11.33;;;-4.60;99.90;;;;;;5120063;28;20651;-76
2022/03/01 04:02:36;;;;;;;21.07;11.50;;;-4.60;99.90;;;;;;5118308;28;20288;-77
2022/03/01 04:05:04;;;;;;;20.33;11.27;;;-4.60;99.90;;;;;;5118246;28;20246;-76
2022/03/01 04:07:31;;;;;;;19.23;11.07;;;-4.60;99.90;;;;;;5117989;28;20198;-76
2022/03/01 04:09:57;;;;;;;20.67;11.43;;;-4.60;99.90;;;;;;5117587;28;20204;-76
2022/03/01 04:12:24;;;;;;;20.30;11.93;;;-4.80;99.90;;;;;;5117210;28;20207;-76
2022/03/01 04:14:51;;;;;;;18.63;11.10;;;-4.90;99.90;;;;;;5117302;28;20258;-77
2022/03/01 04:17:17;;;;;;;19.10;11.80;;;-4.80;99.90;;;;;;5117516;28;20202;-77
2022/03/01 04:19:44;;;;;;;21.30;12.03;;;-4.80;99.90;;;;;;5116901;28;20225;-76
2022/03/01 04:22:12;;;;;;;22.83;11.07;;;-4.90;99.90;;;;;;5117272;28;20196;-76
2022/03/01 04:24:39;;;;;;;18.40;11.07;;;-5.00;99.90;;;;;;5117210;28;20200;-76
2022/03/01 04:27:05;;;;;;;21.43;12.57;;;-4.80;99.90;;;;;;5117094;28;20197;-77
2022/03/01 04:29:32;;;;;;;20.07;12.13;;;-4.80;99.90;;;;;;5117066;28;20204;-76
2022/03/01 04:31:59;;;;;;;23.33;11.80;;;-4.80;99.90;;;;;;5118050;28;20191;-77
2022/03/01 04:34:25;;;;;;;21.07;12.40;;;-4.80;99.90;;;;;;5117891;28;20647;-77
2022/03/01 04:36:52;;;;;;;22.00;11.87;;;-4.80;99.90;;;;;;5117523;28;20200;-76
2022/03/01 04:39:20;;;;;;;19.40;10.93;;;-4.80;99.90;;;;;;5117413;28;20264;-76
2022/03/01 04:41:48;;;;;;;21.27;11.27;;;-4.80;99.90;;;;;;5117629;28;20253;-76
2022/03/01 04:44:15;;;;;;;21.47;11.87;;;-4.90;99.90;;;;;;5117317;28;20564;-77
2022/03/01 04:46:42;;;;;;;24.93;11.17;;;-5.00;99.90;;;;;;5118463;28;20295;-76
2022/03/01 04:49:08;;;;;;;22.17;11.87;;;-5.00;99.90;;;;;;5121261;28;20200;-76
2022/03/01 04:51:35;;;;;;;18.17;11.50;;;-5.00;99.90;;;;;;5122046;28;20218;-76
2022/03/01 04:54:02;;;;;;;18.63;10.70;;;-5.00;99.90;;;;;;5122598;28;20199;-77
2022/03/01 04:56:30;;;;;;;18.67;10.73;;;-5.00;99.90;;;;;;5122799;28;20204;-77
2022/03/01 04:58:56;;;;;;;19.13;11.37;;;-5.00;99.90;;;;;;5121832;28;20600;-76
2022/03/01 05:01:23;;;;;;;20.67;11.57;;;-5.10;99.90;;;;;;5122908;28;20230;-77
2022/03/01 05:03:50;;;;;;;19.53;12.03;;;-5.10;99.90;;;;;;5123679;28;20197;-76
2022/03/01 05:06:17;;;;;;;21.70;11.27;;;-5.00;99.90;;;;;;5123678;28;20197;-76
2022/03/01 05:08:43;;;;;;;21.67;11.87;;;-5.10;99.90;;;;;;5119678;28;20199;-77
2022/03/01 05:11:10;;;;;;;21.67;12.30;;;-5.10;99.90;;;;;;5118343;28;20246;-76
2022/03/01 05:13:38;;;;;;;20.67;11.83;;;-5.10;99.90;;;;;;5118247;28;20195;-76
2022/03/01 05:16:05;;;;;;;20.83;11.73;;;-5.20;99.90;;;;;;5118519;28;20249;-77
2022/03/01 05:18:32;;;;;;;21.67;11.73;;;-5.20;99.90;;;;;;5118427;28;20248;-77
2022/03/01 05:20:59;;;;;;;18.57;11.67;;;-5.10;99.90;;;;;;5118810;28;20261;-76
2022/03/01 05:23:27;;;;;;;20.87;12.37;;;-5.10;99.90;;;;;;5118637;28;20241;-77
2022/03/01 05:25:54;;;;;;;20.80;11.37;;;-5.30;99.90;;;;;;5120244;28;20193;-76
2022/03/01 05:28:20;;;;;;;20.57;11.60;;;-5.40;99.90;;;;;;5120710;28;20196;-76
2022/03/01 05:30:48;;;;;;;20.77;10.30;;;-5.30;99.90;;;;;;5118714;28;20249;-76
2022/03/01 05:33:15;;;;;;;20.53;12.37;;;-5.40;99.90;;;;;;5118807;28;20195;-76
2022/03/01 05:35:42;;;;;;;25.27;12.17;;;-5.50;99.90;;;;;;5116956;28;20225;-76
2022/03/01 05:38:10;;;;;;;23.30;12.67;;;-5.30;99.90;;;;;;5119997;28;20206;-77
2022/03/01 05:40:38;;;;;;;20.13;11.77;;;-5.30;99.90;;;;;;5122714;28;20230;-77
2022/03/01 05:43:06;;;;;;;22.60;12.13;;;-5.40;99.90;;;;;;5123025;28;20200;-77
2022/03/01 05:45:33;;;;;;;21.27;12.17;;;-5.30;99.90;;;;;;5123127;28;20192;-76
2022/03/01 05:48:02;;;;;;;21.53;12.27;;;-5.20;99.90;;;;;;5123194;28;20196;-77
2022/03/01 05:50:28;;;;;;;20.67;12.60;;;-5.20;99.90;;;;;;5123218;28;20245;-77
2022/03/01 05:52:55;;;;;;;24.27;12.30;;;-5.30;99.90;;;;;;5121079;28;20319;-76
2022/03/01 05:55:22;;;;;;;17.77;11.67;;;-5.40;99.90;;;;;;5119394;28;20217;-76
2022/03/01 05:57:49;;;;;;;21.83;11.90;;;-5.30;99.90;;;;;;5117714;28;20195;-76
2022/03/01 06:00:18;;;;;;;18.73;11.37;;;-5.20;99.90;;;;;;5117424;28;20219;-76
2022/03/01 06:02:46;;;;;;;19.80;12.10;;;-5.20;99.90;;;;;;5117521;28;20595;-76
2022/03/01 06:05:15;;;;;;;21.43;12.23;;;-5.20;99.90;;;;;;5116693;28;20282;-76
2022/03/01 06:07:42;;;;;;;23.00;13.17;;;-5.20;99.90;;;;;;5117252;28;20207;-76
2022/03/01 06:10:10;;;;;;;22.00;12.50;;;-5.20;99.90;;;;;;5117103;28;20199;-76
2022/03/01 06:12:37;;;;;;;25.53;12.53;;;-5.20;99.90;;;;;;5116112;28;20191;-76
2022/03/01 06:15:05;;;;;;;19.10;11.33;;;-5.20;99.90;;;;;;5115884;28;20793;-76
2022/03/01 06:17:32;;;;;;;20.03;12.73;;;-5.30;99.90;;;;;;5116324;28;20650;-76
2022/03/01 06:19:59;;;;;;;23.23;11.87;;;-5.30;99.90;;;;;;5115660;28;20697;-77
2022/03/01 06:22:29;;;;;;;21.13;11.47;;;-5.30;99.90;;;;;;5115722;28;20268;-76
2022/03/01 06:24:55;;;;;;;20.03;11.43;;;-5.20;99.90;;;;;;5115980;28;20596;-77
2022/03/01 06:27:22;;;;;;;22.77;12.10;;;-5.30;99.90;;;;;;5115870;28;20199;-76
2022/03/01 06:29:49;;;;;;;22.13;12.43;;;-5.30;99.90;;;;;;5115393;28;20233;-76
2022/03/01 06:32:16;;;;;;;19.43;11.73;;;-5.20;99.90;;;;;;5115501;28;20671;-77
2022/03/01 06:34:43;;;;;;;23.10;12.07;;;-5.20;99.90;;;;;;5115294;28;20221;-76
2022/03/01 06:37:13;;;;;;;21.50;12.23;;;-5.00;99.90;;;;;;5115217;28;20204;-76
2022/03/01 06:39:42;;;;;;;21.60;12.67;;;-4.90;99.90;;;;;;5115430;28;20254;-76
2022/03/01 06:42:09;;;;;;;24.83;12.27;;;-4.80;99.90;;;;;;5114767;28;20193;-76
2022/03/01 06:44:36;;;;;;;20.63;11.80;;;-4.70;99.90;;;;;;5114577;28;20283;-76
2022/03/01 06:47:04;;;;;;;23.87;12.90;;;-4.60;99.90;;;;;;5114302;28;20200;-76
2022/03/01 06:49:30;;;;;;;22.93;13.00;;;-4.50;99.90;;;;;;5114772;28;20234;-76
2022/03/01 06:51:57;;;;;;;26.50;13.27;;;-4.40;99.90;;;;;;5114355;28;20196;-76
2022/03/01 06:54:24;;;;;;;22.40;12.77;;;-4.40;99.90;;;;;;5114682;28;20204;-76
2022/03/01 06:56:52;;;;;;;21.03;12.93;;;-4.30;99.90;;;;;;5114490;28;20643;-76
2022/03/01 06:59:19;;;;;;;21.90;12.73;;;-4.20;99.90;;;;;;5114599;28;20194;-77
2022/03/01 07:01:46;;;;;;;22.13;12.67;;;-4.10;99.90;;;;;;5115395;28;20245;-76
2022/03/01 07:04:13;;;;;;;22.43;12.07;;;-4.10;99.90;;;;;;5115233;28;20195;-76
2022/03/01 07:06:40;;;;;;;27.33;12.97;;;-4.00;99.90;;;;;;5114894;28;20204;-76
2022/03/01 07:09:06;;;;;;;25.60;14.43;;;-3.90;99.90;;;;;;5114730;28;20205;-77
2022/03/01 07:11:33;;;;;;;27.67;12.90;;;-3.80;99.90;;;;;;5114432;28;20561;-77
2022/03/01 07:14:01;;;;;;;25.87;13.33;;;-3.70;99.90;;;;;;5114614;28;20198;-77
2022/03/01 07:16:28;;;;;;;21.30;13.30;;;-3.70;99.90;;;;;;5114525;28;20199;-77
2022/03/01 07:18:56;;;;;;;23.83;13.50;;;-3.50;99.90;;;;;;5114545;28;20226;-77
2022/03/01 07:21:23;;;;;;;20.73;11.77;;;-3.30;99.90;;;;;;5114598;28;20690;-77
2022/03/01 07:23:50;;;;;;;19.17;10.70;;;-3.20;99.90;;;;;;5114271;28;20657;-77
2022/03/01 07:26:17;;;;;;;19.63;11.77;;;-3.00;99.90;;;;;;5114648;28;20292;-78
2022/03/01 07:28:45;;;;;;;15.50;10.37;;;-2.80;99.90;;;;;;5114979;28;20252;-77
2022/03/01 07:31:13;;;;;;;19.33;10.17;;;-2.70;99.90;;;;;;5117729;28;20206;-77
2022/03/01 07:33:41;;;;;;;14.73;8.47;;;-2.50;99.90;;;;;;5119073;28;20195;-77
2022/03/01 07:36:08;;;;;;;14.57;8.93;;;-2.30;99.90;;;;;;5118615;28;20288;-77
2022/03/01 07:38:35;;;;;;;15.67;8.83;;;-2.20;99.90;;;;;;5118363;28;20581;-77
2022/03/01 07:41:02;;;;;;;14.73;8.53;;;-2.10;99.90;;;;;;5117963;28;20223;-77
2022/03/01 07:43:29;;;;;;;15.97;9.33;;;-2.00;99.90;;;;;;5120727;28;20241;-76
2022/03/01 07:45:55;;;;;;;14.33;7.93;;;-1.70;99.90;;;;;;5121721;28;20547;-77
2022/03/01 07:48:25;;;;;;;12.43;7.63;;;-1.70;99.90;;;;;;5121861;28;20592;-76
2022/03/01 07:50:52;;;;;;;15.40;8.43;;;-1.50;99.90;;;;;;5120665;28;20563;-77
2022/03/01 07:53:18;;;;;;;16.17;7.90;;;-1.40;99.90;;;;;;5119426;28;20714;-77
2022/03/01 07:55:45;;;;;;;12.20;8.30;;;-1.20;99.90;;;;;;5119016;28;20698;-77
2022/03/01 07:58:12;;;;;;;12.30;8.10;;;-1.10;99.90;;;;;;5118743;28;20208;-77
2022/03/01 08:00:38;;;;;;;13.53;7.67;;;-1.00;99.90;;;;;;5119622;28;20227;-77
2022/03/01 08:03:05;;;;;;;13.10;7.73;;;-0.80;99.90;;;;;;5118930;28;20195;-77
2022/03/01 08:05:33;;;;;;;11.00;7.37;;;-0.60;99.90;;;;;;5119064;28;20532;-77
2022/03/01 08:08:00;;;;;;;10.93;7.67;;;-0.50;99.90;;;;;;5119016;28;20200;-77
2022/03/01 08:10:27;;;;;;;10.30;7.33;;;-0.40;99.90;;;;;;5118861;28;20219;-77
2022/03/01 08:12:55;;;;;;;13.60;7.77;;;-0.30;99.90;;;;;;5121890;28;20712;-76
2022/03/01 08:15:25;;;;;;;11.90;8.40;;;-0.10;99.90;;;;;;5120386;28;20733;-77
2022/03/01 08:17:54;;;;;;;14.73;8.30;;;0.00;99.90;;;;;;5118270;28;20199;-78
2022/03/01 08:20:22;;;;;;;12.80;8.00;;;0.10;99.90;;;;;;5117859;28;20240;-78
2022/03/01 08:22:50;;;;;;;12.37;8.07;;;0.20;99.90;;;;;;5118312;28;20244;-77
2022/03/01 08:25:17;;;;;;;12.30;7.77;;;0.30;99.90;;;;;;5117858;28;20766;-77
2022/03/01 08:27:44;;;;;;;13.70;8.97;;;0.60;99.90;;;;;;5118112;28;20200;-77
2022/03/01 08:30:12;;;;;;;15.57;8.67;;;0.80;99.90;;;;;;5117636;28;20196;-77
2022/03/01 08:32:38;;;;;;;11.77;8.40;;;0.80;99.90;;;;;;5117137;28;20220;-77
2022/03/01 08:35:06;;;;;;;13.87;7.50;;;0.90;99.90;;;;;;5117173;28;20613;-77
2022/03/01 08:37:33;;;;;;;11.90;7.90;;;1.10;99.90;;;;;;5117915;28;20200;-77
2022/03/01 08:40:02;;;;;;;12.63;7.73;;;1.20;95.90;;;;;;5116533;28;20245;-77
2022/03/01 08:42:28;;;;;;;10.80;7.37;;;1.30;94.30;;;;;;5115359;28;20563;-77
2022/03/01 08:44:55;;;;;;;8.93;6.53;;;1.30;92.20;;;;;;5116516;28;20196;-77
2022/03/01 08:47:23;;;;;;;13.03;7.60;;;1.50;92.40;;;;;;5116401;28;20241;-77
2022/03/01 08:49:50;;;;;;;11.90;7.37;;;1.80;91.10;;;;;;5116214;28;20205;-77
2022/03/01 08:52:17;;;;;;;10.03;6.97;;;1.90;88.20;;;;;;5116468;28;20253;-77
2022/03/01 08:54:43;;;;;;;11.47;6.57;;;2.10;84.90;;;;;;5116749;28;20199;-78
2022/03/01 08:57:11;;;;;;;10.37;6.20;;;2.20;81.60;;;;;;5116267;28;20229;-78
2022/03/01 08:59:38;;;;;;;11.33;6.73;;;2.30;78.80;;;;;;5116531;28;20195;-77
2022/03/01 09:02:05;;;;;;;11.50;7.33;;;2.40;75.80;;;;;;5116668;28;20277;-77
2022/03/01 09:04:32;;;;;;;8.87;6.63;;;2.60;74.60;;;;;;5115611;28;20201;-78
2022/03/01 09:06:58;;;;;;;9.10;6.80;;;2.70;73.20;;;;;;5113842;28;20195;-76
2022/03/01 09:09:25;;;;;;;9.97;6.60;;;3.00;73.00;;;;;;5116515;28;20199;-77
2022/03/01 09:11:52;;;;;;;9.93;7.03;;;3.20;68.20;;;;;;5116389;28;20657;-75
2022/03/01 09:14:20;;;;;;;11.73;7.17;;;3.30;63.00;;;;;;5115804;28;20241;-75
2022/03/01 09:16:46;;;;;;;9.63;6.60;;;3.40;61.80;;;;;;5115809;28;20191;-75
2022/03/01 09:19:14;;;;;;;11.87;7.60;;;3.60;60.60;;;;;;5115681;28;20290;-75
2022/03/01 09:21:41;;;;;;;9.63;6.90;;;3.80;61.80;;;;;;5115643;28;20227;-75
2022/03/01 09:24:08;;;;;;;11.10;7.23;;;4.20;58.10;;;;;;5115966;28;20203;-76
2022/03/01 09:26:35;;;;;;;8.97;6.77;;;4.30;56.30;;;;;;5115364;28;20199;-76
2022/03/01 09:29:02;;;;;;;8.83;6.00;;;4.40;56.60;;;;;;5115664;28;20199;-76
2022/03/01 09:31:30;;;;;;;10.17;7.10;;;4.50;52.30;;;;;;5116602;28;20200;-77
2022/03/01 09:33:57;;;;;;;8.33;6.67;;;4.60;52.20;;;;;;5117750;28;20204;-77
2022/03/01 09:36:24;;;;;;;11.83;8.70;;;4.80;50.70;;;;;;5117590;28;20195;-75
2022/03/01 09:38:51;;;;;;;10.17;7.20;;;4.80;49.80;;;;;;5117269;28;20244;-76
2022/03/01 09:41:18;;;;;;;10.43;7.23;;;5.10;47.80;;;;;;5117368;28;20225;-76
2022/03/01 09:43:45;;;;;;;12.23;7.00;;;5.20;47.80;;;;;;5116928;28;20203;-75
2022/03/01 09:46:11;;;;;;;10.00;7.47;;;5.40;45.30;;;;;;5115629;28;20196;-77
2022/03/01 09:48:40;;;;;;;8.07;6.97;;;5.60;44.40;;;;;;5115232;28;20217;-73
2022/03/01 09:51:08;;;;;;;10.30;7.40;;;5.80;43.30;;;;;;5114748;28;20203;-76
2022/03/01 09:53:35;;;;;;;9.50;6.97;;;5.90;43.00;;;;;;5114268;28;20600;-77
2022/03/01 09:56:04;;;;;;;9.27;6.93;;;6.30;42.20;;;;;;5113904;28;20253;-76
2022/03/01 09:58:31;;;;;;;9.03;7.33;;;6.40;40.30;;;;;;5113542;28;20203;-77
2022/03/01 10:00:57;;;;;;;9.47;7.73;;;6.70;39.30;;;;;;5113840;28;20223;-77
2022/03/01 10:03:24;;;;;;;8.90;7.10;;;6.70;38.60;;;;;;5113966;28;20233;-76
2022/03/01 10:05:52;;;;;;;8.80;7.53;;;6.80;38.00;;;;;;5113680;28;20292;-80
2022/03/01 10:08:21;;;;;;;9.23;7.63;;;6.90;36.60;;;;;;5113783;28;20245;-76
2022/03/01 10:10:50;;;;;;;10.45;7.47;;;6.90;36.60;;;;;;5113265;28;20555;-76
2022/03/01 10:13:24;;;;;;;8.60;7.60;;;7.40;35.50;;;;;;5113244;28;20207;-76
2022/03/01 10:15:51;;;;;;;8.57;7.13;;;7.20;33.60;;;;;;5113648;28;20195;-76
2022/03/01 10:18:18;;;;;;;9.80;6.93;;;7.10;32.90;;;;;;5113224;28;20191;-76
2022/03/01 10:20:46;;;;;;;11.23;8.05;;;7.30;34.00;;;;;;5113339;28;20257;-76
2022/03/01 10:23:21;;;;;;;9.10;7.07;;;7.90;31.80;;;;;;5113314;28;20286;-76
2022/03/01 10:25:49;;;;;;;9.27;7.55;;;7.80;32.10;;;;;;5113096;28;20196;-76
2022/03/01 10:28:16;;;;;;;8.27;7.47;;;7.80;31.00;;;;;;5113478;28;20253;-76
2022/03/01 10:30:42;;;;;;;8.45;7.45;;;8.20;30.50;;;;;;5113334;28;20200;-76
2022/03/01 10:33:10;;;;;;;8.50;6.60;;;8.40;29.10;;;;;;5113077;28;20203;-76
2022/03/01 10:35:39;;;;;;;8.85;7.00;;;8.80;28.60;;;;;;5112968;28;20671;-76
2022/03/01 10:38:07;;;;;;;8.45;6.80;;;9.00;28.10;;;;;;5113036;28;20569;-76
2022/03/01 10:40:38;;;;;;;9.90;7.80;;;9.60;26.90;;;;;;5113382;28;20219;-76
2022/03/01 10:43:09;;;;;;;7.43;6.72;;;10.30;26.50;;;;;;5113298;28;20210;-76
2022/03/01 10:45:39;;;;;;;9.23;7.28;;;11.00;24.50;;;;;;5113321;28;20203;-76
2022/03/01 10:48:08;;;;;;;9.95;7.72;;;11.30;24.50;;;;;;5112753;28;20681;-76
2022/03/01 10:50:36;;;;;;;7.80;6.93;;;11.30;23.50;;;;;;5113103;28;20191;-75
2022/03/01 10:53:04;;;;;;;7.15;6.45;;;11.90;23.20;;;;;;5113193;28;20203;-75
2022/03/01 10:55:34;;;;;;;8.48;6.82;;;11.40;21.80;;;;;;5113391;28;20200;-76
2022/03/01 10:58:07;;;;;;;10.23;7.00;;;11.50;21.40;;;;;;5113108;28;20202;-76
2022/03/01 11:00:35;;;;;;;7.57;6.78;;;11.50;21.40;;;;;;5113066;28;20651;-76
2022/03/01 11:03:04;;;;;;;7.00;6.22;;;11.50;20.80;;;;;;5113136;28;20230;-76
2022/03/01 11:05:32;;;;;;;8.43;7.22;;;12.10;20.90;;;;;;5114665;28;20741;-77
2022/03/01 11:08:03;;;;;;;7.53;6.70;;;13.00;19.50;;;;;;5117474;28;20196;-77
2022/03/01 11:10:32;;;;;;;8.15;6.85;;;13.90;19.20;;;;;;5117251;28;20191;-76
2022/03/01 11:13:01;;;;;;;8.70;6.75;;;13.80;18.50;;;;;;5117153;28;20337;-76
2022/03/01 11:15:45;;;;;;;7.47;6.75;;;13.90;18.40;;;;;;5116962;28;20406;-77
2022/03/01 11:18:24;;;;;;;7.15;6.45;;;13.80;17.00;;;;;;5117097;28;20199;-77
2022/03/01 11:20:53;;;;;;;7.55;6.60;;;14.10;17.10;;;;;;5116971;28;20199;-77
2022/03/01 11:23:23;;;;;;;7.47;6.22;;;14.60;16.90;;;;;;5116955;28;20217;-76
2022/03/01 11:25:52;;;;;;;8.10;6.68;;;15.00;16.80;;;;;;5116736;28;20272;-76
2022/03/01 11:28:39;;;;;;;8.10;6.25;;;15.70;16.10;;;;;;5116960;28;20200;-75
2022/03/01 11:31:19;;;;;;;7.85;6.38;;;15.30;14.50;;;;;;5118225;28;20200;-76
2022/03/01 11:33:55;;;;;;;7.15;6.45;;;16.40;14.70;;;;;;5116685;28;20250;-76
2022/03/01 11:36:23;;;;;;;7.47;6.68;;;16.50;14.00;;;;;;5116602;28;20240;-76
2022/03/01 11:38:50;;;;;;;6.50;5.82;;;17.50;13.40;;;;;;5116993;28;20199;-75
2022/03/01 11:41:19;;;;;;;6.82;6.13;;;16.90;12.10;;;;;;5116447;28;20270;-76
2022/03/01 11:43:54;;;;;;;7.50;6.03;;;17.20;11.40;;;;;;5116550;28;20196;-77
2022/03/01 11:46:22;;;;;;;6.95;6.25;;;17.20;11.90;;;;;;5115984;28;20658;-76
2022/03/01 11:48:53;;;;;;;8.27;6.30;;;18.20;11.70;;;;;;5115011;27;20191;-75
2022/03/01 11:51:30;;;;;;;6.90;6.30;;;18.70;11.20;;;;;;5114911;27;20206;-75
2022/03/01 11:53:58;;;;;;;6.35;5.68;;;18.50;10.50;;;;;;5116188;28;20719;-75
2022/03/01 11:56:25;;;;;;;6.93;5.80;;;18.60;10.50;;;;;;5116394;28;20200;-75
2022/03/01 11:58:52;;;;;;;9.10;6.22;;;18.90;10.70;;;;;;5116154;28;20249;-75
2022/03/01 12:01:24;;;;;;;8.18;6.35;;;19.40;10.10;;;;;;5115806;28;20206;-76
2022/03/01 12:03:52;;;;;;;6.95;6.25;;;19.40;9.90;;;;;;5134508;27;20642;-76
2022/03/01 12:06:22;;;;;;;8.32;6.32;;;19.80;9.30;;;;;;5136692;27;20255;-76
2022/03/01 12:08:57;;;;;;;7.57;5.60;;;20.00;9.10;;;;;;5136699;27;20199;-76
2022/03/01 12:11:33;;;;;;;7.07;6.10;;;20.50;8.80;;;;;;5136814;27;20279;-76
2022/03/01 12:14:03;;;;;;;7.50;6.65;;;19.50;8.10;;;;;;5136470;27;20257;-75
2022/03/01 12:16:32;;;;;;;6.70;6.10;;;19.30;8.90;;;;;;5135661;27;20197;-76
2022/03/01 12:19:08;;;;;;;9.98;5.88;;;19.10;8.80;;;;;;5136520;27;20223;-76
2022/03/01 12:21:35;;;;;;;7.70;5.63;;;20.00;8.30;;;;;;5136465;27;20215;-75
2022/03/01 12:24:02;;;;;;;9.25;5.80;;;20.20;7.90;;;;;;5136415;27;20248;-75
2022/03/01 12:26:29;;;;;;;7.88;5.72;;;19.10;7.40;;;;;;5136257;27;20202;-75
2022/03/01 12:28:58;;;;;;;6.65;5.90;;;19.80;7.70;;;;;;5136387;27;20203;-75
2022/03/01 12:31:27;;;;;;;6.55;5.93;;;20.80;7.40;;;;;;5136313;27;20247;-75
2022/03/01 12:33:57;;;;;;;6.15;5.63;;;20.20;6.80;;;;;;5136297;27;20199;-75
2022/03/01 12:36:26;;;;;;;6.65;5.95;;;20.90;7.40;;;;;;5136191;27;20255;-75
2022/03/01 12:38:54;;;;;;;6.03;5.43;;;21.30;6.70;;;;;;5136132;27;20251;-75